Aérodrome :
LOGIN :

S'inscrire | Disclaimer

   EN    FR    IT 

 










Légende :    VFR   VFR Marginal   IFR   IFR Intensif   IFR Très Intensif
Visi : 
Plafond : 
>= 8 km
>= 3000ft
5 à 8 km
1000 à 3000 ft
1500m à 5 km
500 à 1000 ft
800 à 1500m
200 à 500 ft
< 800m
< 200 ft
Symboles :   Orages  Brouillard  Fortes neiges  Fortes précipitations  Vent > 20 kt
SIGMETs :   Divers  Orages  Givrage  Turbulence  Onde Orograph.  Cendres Volcan.






- Altitude de l'aérodrome : 87 ft
- Code IATA : FSC


LFKF - Figari

DERNIER METAR :
  • 101030Z AUTO 23005KT 200V280 CAVOK 16/07 Q1013 BECMG 04015G25KT

METARs EXPIRÉS :
  • 101000Z AUTO 16002KT CAVOK 15/05 Q1014 BECMG 04015G25KT
  • 100930Z AUTO 25003KT 200V280 CAVOK 13/07 Q1013 BECMG 04015G25KT
  • 100900Z AUTO VRB03KT CAVOK 11/06 Q1013 BECMG 04015G25KT
  • 100830Z AUTO VRB02KT CAVOK 09/06 Q1012 BECMG 05015G27KT
  • 100800Z AUTO VRB01KT CAVOK 05/04 Q1012 NOSIG

TAF TAF LFKF
Valide du 10 à 09h jusqu'au 11 à 09h UTC


100800Z 1009/1109 VRB02KT CAVOK
BECMG 1010/1012 04015G25KT
BECMG 1016/1018 05004KT



MET'MAP, la Météo Aéronautique d'un coup d'oeil ! - Copyright ORBIFLY Décembre 2007 - Disclaimer

ORBIFLY MET'MAP TEAM :

Programmation & Développement : Alexandra Zaïnal
Sur une idée originale de : Baudouin d'Aumeries
Assistance à la programmation : Marc-Olivier Méhu
Soutien technique & logistique : Manuel Goepfert

Contact : metmap@orbifly.com




SOURCES & CREDITS :

   NOAA